Time;durP1;ratioP1;P1;durP2;ratioP2;P2;SDS_P1;SDS_P2;PMS_P1;PMS_P2;Temp;Humidity;BMP_temperature;BMP_pressure;BME280_temperature;BME280_humidity;BME280_pressure;Samples;Min_cycle;Max_cycle;Signal;HPM_P1;HPM_P2
2022/04/01 00:00:14;;;;;;;45.45;26.85;;;;;;;1.67;99.33;99866.69;5025138;28;20117;-73
2022/04/01 00:02:41;;;;;;;45.25;26.23;;;;;;;1.59;99.37;99858.00;5008943;28;20172;-70
2022/04/01 00:05:07;;;;;;;40.97;26.27;;;;;;;1.53;98.93;99864.41;5007008;28;20446;-73
2022/04/01 00:07:34;;;;;;;39.97;25.35;;;;;;;1.57;98.65;99870.91;5027850;28;20033;-73
2022/04/01 00:10:00;;;;;;;38.30;24.42;;;;;;;1.57;97.80;99872.66;5009905;28;20396;-73
2022/04/01 00:12:26;;;;;;;42.17;25.73;;;;;;;1.52;98.21;99865.34;5027206;28;20045;-73
2022/04/01 00:14:51;;;;;;;35.85;23.90;;;;;;;1.53;97.95;99878.00;5009014;28;20037;-73
2022/04/01 00:17:17;;;;;;;35.97;22.45;;;;;;;1.51;98.09;99871.41;4988327;28;20041;-73
2022/04/01 00:19:42;;;;;;;39.83;24.27;;;;;;;1.47;98.02;99880.22;5001814;28;20037;-73
2022/04/01 00:22:08;;;;;;;35.17;23.77;;;;;;;1.45;98.03;99884.63;5028070;28;20045;-73
2022/04/01 00:24:33;;;;;;;40.10;24.90;;;;;;;1.46;97.70;99870.94;5023963;28;20399;-73
2022/04/01 00:27:02;;;;;;;39.30;23.25;;;;;;;1.45;98.35;99880.34;5030341;28;20044;-73
2022/04/01 00:29:27;;;;;;;36.03;23.83;;;;;;;1.43;98.06;99876.28;5010438;28;20708;-73
2022/04/01 00:32:01;;;;;;;40.13;23.90;;;;;;;1.39;98.47;99872.34;5007301;28;20125;-72
2022/04/01 00:34:31;;;;;;;41.05;25.40;;;;;;;1.44;98.79;99883.03;4997889;28;20086;-73
2022/04/01 00:36:59;;;;;;;37.33;23.35;;;;;;;1.44;98.69;99881.28;5014799;28;20115;-73
2022/04/01 00:39:26;;;;;;;38.10;24.27;;;;;;;1.39;99.02;99885.13;5010368;28;20073;-73
2022/04/01 00:41:53;;;;;;;36.05;23.70;;;;;;;1.35;98.10;99885.34;5010193;28;20034;-72
2022/04/01 00:44:22;;;;;;;36.03;22.15;;;;;;;1.37;98.03;99892.88;5008282;28;20029;-73
2022/04/01 00:47:06;;;;;;;34.55;22.45;;;;;;;1.38;98.09;99893.72;5008095;28;20095;-73
2022/04/01 00:49:33;;;;;;;35.33;22.20;;;;;;;1.28;98.13;99896.97;5017545;28;20039;-70
2022/04/01 00:52:12;;;;;;;31.98;21.08;;;;;;;1.35;97.68;99898.13;5023225;28;20095;-73
2022/04/01 00:54:38;;;;;;;38.08;22.35;;;;;;;1.21;97.80;99906.03;5016709;28;20064;-72
2022/04/01 00:57:10;;;;;;;29.40;20.35;;;;;;;1.31;97.21;99906.16;5003885;28;20420;-72
2022/04/01 00:59:36;;;;;;;33.22;20.17;;;;;;;1.30;96.98;99913.00;4984424;28;20052;-72
2022/04/01 01:02:03;;;;;;;30.17;19.65;;;;;;;1.32;96.79;99912.91;5022371;28;20498;-72
2022/04/01 01:04:29;;;;;;;34.33;19.77;;;;;;;1.24;96.49;99912.66;5018938;28;20026;-73
2022/04/01 01:06:59;;;;;;;30.42;19.23;;;;;;;1.32;97.13;99907.78;5022781;28;20040;-73
2022/04/01 01:09:25;;;;;;;31.70;20.30;;;;;;;1.23;97.39;99911.03;4999604;28;20037;-70
2022/04/01 01:11:53;;;;;;;31.73;19.27;;;;;;;1.25;97.22;99920.19;5002459;28;20448;-72
2022/04/01 01:14:30;;;;;;;29.67;19.08;;;;;;;1.25;97.06;99917.66;5003794;28;20033;-72
2022/04/01 01:16:57;;;;;;;28.85;18.30;;;;;;;1.31;97.07;99922.28;5001873;28;20025;-72
2022/04/01 01:19:23;;;;;;;30.02;18.10;;;;;;;1.29;96.47;99918.22;5018344;28;20029;-72
2022/04/01 01:21:52;;;;;;;27.20;17.67;;;;;;;1.33;96.35;99919.59;5004956;28;20554;-73
2022/04/01 01:24:23;;;;;;;29.65;17.70;;;;;;;1.26;97.13;99923.56;5017367;28;20095;-72
2022/04/01 01:26:52;;;;;;;29.55;18.83;;;;;;;1.28;96.90;99922.53;4999264;28;20061;-70
2022/04/01 01:29:31;;;;;;;26.98;17.05;;;;;;;1.27;97.21;99928.56;5016427;28;20041;-72
2022/04/01 01:32:00;;;;;;;25.02;15.63;;;;;;;1.26;95.91;99929.50;5004966;28;20542;-72
2022/04/01 01:34:26;;;;;;;23.75;15.93;;;;;;;1.22;96.00;99925.53;5021055;28;20033;-73
2022/04/01 01:36:52;;;;;;;27.55;16.98;;;;;;;1.20;96.18;99929.13;5021641;28;20437;-72
2022/04/01 01:39:19;;;;;;;22.33;15.82;;;;;;;1.15;96.42;99932.06;5006840;28;20048;-73
2022/04/01 01:41:46;;;;;;;29.02;15.80;;;;;;;1.16;96.44;99928.56;5008428;28;20026;-72
2022/04/01 01:44:14;;;;;;;21.48;14.30;;;;;;;1.13;96.04;99928.78;5018781;28;20103;-73
2022/04/01 01:46:40;;;;;;;20.25;13.90;;;;;;;1.11;96.61;99926.38;5008424;28;20029;-72
2022/04/01 01:49:06;;;;;;;22.20;14.18;;;;;;;1.10;96.39;99929.03;5018951;28;20124;-72
2022/04/01 01:57:00;;;;;;;25.17;14.68;;;;;;;1.09;96.52;99924.84;5007103;28;20034;-70
2022/04/01 01:59:26;;;;;;;25.77;15.75;;;;;;;0.95;96.83;99939.47;5020829;28;20033;-73
2022/04/01 02:01:55;;;;;;;20.33;13.85;;;;;;;0.97;97.33;99932.50;5007983;28;20029;-73
2022/04/01 02:04:22;;;;;;;21.98;14.63;;;;;;;0.96;97.21;99933.44;5003296;28;20128;-73
2022/04/01 02:06:49;;;;;;;22.02;14.73;;;;;;;0.89;97.13;99934.00;5004281;28;20096;-72
2022/04/01 02:09:16;;;;;;;20.92;14.35;;;;;;;0.89;96.69;99934.81;4990961;28;20025;-73
2022/04/01 02:11:45;;;;;;;26.33;14.73;;;;;;;0.95;96.72;99944.56;5009988;28;20033;-70
2022/04/01 02:14:11;;;;;;;23.08;14.65;;;;;;;0.95;96.86;99942.00;4989602;28;20728;-72
2022/04/01 02:16:38;;;;;;;25.25;15.10;;;;;;;0.82;96.51;99936.19;4987834;28;20052;-72
2022/04/01 02:19:05;;;;;;;23.17;15.05;;;;;;;0.86;97.44;99942.69;4989754;28;20455;-72
2022/04/01 02:21:34;;;;;;;25.08;14.95;;;;;;;0.82;96.98;99946.41;5003862;28;20061;-72
2022/04/01 02:24:00;;;;;;;20.95;14.60;;;;;;;0.84;96.91;99944.56;5004539;28;20041;-72
2022/04/01 02:26:25;;;;;;;26.63;15.20;;;;;;;0.88;96.66;99942.59;5005656;28;20030;-72
2022/04/01 02:28:51;;;;;;;24.55;14.95;;;;;;;0.78;96.44;99947.56;4999765;28;20107;-72
2022/04/01 02:31:20;;;;;;;23.88;13.88;;;;;;;0.80;96.44;99958.47;5001257;28;20129;-72
2022/04/01 02:34:04;;;;;;;26.23;14.50;;;;;;;0.81;96.24;99962.66;5004538;28;20145;-72
2022/04/01 02:36:30;;;;;;;23.90;13.63;;;;;;;0.70;95.80;99958.34;5000631;28;20029;-72
2022/04/01 02:38:56;;;;;;;25.23;13.82;;;;;;;0.65;96.53;99964.72;4988235;28;20246;-72
2022/04/01 02:41:21;;;;;;;22.90;13.20;;;;;;;0.65;96.93;99968.06;5004837;28;20689;-71
2022/04/01 02:43:47;;;;;;;18.02;12.48;;;;;;;0.66;96.46;99971.44;5018440;28;20032;-72
2022/04/01 02:46:13;;;;;;;20.25;12.57;;;;;;;0.60;96.01;99975.25;5002984;28;20084;-72
2022/04/01 02:48:59;;;;;;;19.73;11.52;;;;;;;0.59;96.07;99976.19;5020812;28;20262;-72
2022/04/01 02:51:39;;;;;;;21.00;12.93;;;;;;;0.62;96.48;99970.03;5003488;28;20028;-72
2022/04/01 02:54:20;;;;;;;19.30;12.07;;;;;;;0.65;96.59;99978.28;5006399;28;20033;-71
2022/04/01 02:56:47;;;;;;;21.50;12.25;;;;;;;0.68;96.20;99987.44;5000356;28;20061;-72
2022/04/01 02:59:13;;;;;;;20.75;12.20;;;;;;;0.64;96.37;99986.88;4993605;28;20029;-71
2022/04/01 03:01:40;;;;;;;22.10;11.68;;;;;;;0.60;96.47;99992.28;5010414;28;20042;-72
2022/04/01 03:04:09;;;;;;;17.35;11.57;;;;;;;0.66;95.82;99989.28;5011477;28;20187;-72
2022/04/01 03:06:43;;;;;;;22.75;11.00;;;;;;;0.63;96.27;99992.09;5025446;28;20033;-72
2022/04/01 03:09:09;;;;;;;19.37;10.63;;;;;;;0.61;94.74;99988.84;5007370;28;20538;-72
2022/04/01 03:11:37;;;;;;;14.75;9.63;;;;;;;0.68;94.33;99992.53;5028336;28;20115;-72
2022/04/01 03:14:08;;;;;;;17.40;10.45;;;;;;;0.65;94.49;99996.13;5009829;28;20033;-71
2022/04/01 03:17:03;;;;;;;18.02;10.00;;;;;;;0.72;93.33;99996.53;4990005;28;20073;-72
2022/04/01 03:19:29;;;;;;;15.15;9.63;;;;;;;0.73;93.86;100004.03;5006601;28;20025;-72
2022/04/01 03:21:55;;;;;;;14.43;9.25;;;;;;;0.68;92.66;100005.28;5002168;28;20479;-72
2022/04/01 03:24:21;;;;;;;21.58;9.50;;;;;;;0.61;92.33;100014.34;5020607;28;20144;-72
2022/04/01 03:26:49;;;;;;;16.38;9.68;;;;;;;0.69;93.00;100014.59;5007796;28;20590;-72
2022/04/01 03:29:17;;;;;;;16.58;9.45;;;;;;;0.69;93.52;100019.69;4996917;28;20206;-72
2022/04/01 03:31:45;;;;;;;16.77;9.25;;;;;;;0.71;93.54;100013.56;4992527;28;20021;-71
2022/04/01 03:34:11;;;;;;;13.85;9.60;;;;;;;0.69;91.98;100017.16;5008528;28;20038;-72
2022/04/01 03:36:37;;;;;;;15.25;8.77;;;;;;;0.67;91.95;100019.81;5006823;28;20025;-72
2022/04/01 03:39:03;;;;;;;15.60;9.02;;;;;;;0.66;91.82;100030.13;5006879;28;20057;-71
2022/04/01 03:41:44;;;;;;;17.90;9.93;;;;;;;0.70;92.45;100029.81;5013676;28;20033;-71
2022/04/01 03:44:11;;;;;;;16.17;10.73;;;;;;;0.74;92.83;100033.75;5011553;28;20109;-72
2022/04/01 03:46:49;;;;;;;19.90;11.35;;;;;;;0.66;91.38;100032.66;4994943;28;20029;-72
2022/04/01 03:49:23;;;;;;;19.67;11.60;;;;;;;0.68;91.52;100041.03;5038198;23;20160;-71
2022/04/01 03:51:50;;;;;;;19.60;11.52;;;;;;;0.67;91.75;100050.44;5020741;28;20546;-71
2022/04/01 03:54:17;;;;;;;15.90;10.05;;;;;;;0.67;91.05;100040.22;4987471;28;20104;-70
2022/04/01 03:57:02;;;;;;;17.73;10.93;;;;;;;0.66;91.67;100043.72;5025139;28;20750;-72
2022/04/01 04:00:15;;;;;;;21.33;11.38;;;;;;;0.65;91.68;100046.38;4974503;28;20444;-71
2022/04/01 04:02:46;;;;;;;22.35;13.40;;;;;;;0.59;92.13;100052.72;5002137;28;20125;-71
2022/04/01 04:05:18;;;;;;;22.52;13.20;;;;;;;0.65;92.57;100054.84;4987029;28;20053;-72
2022/04/01 04:07:46;;;;;;;26.58;12.90;;;;;;;0.58;91.45;100053.63;4990826;28;20029;-72
2022/04/01 04:10:17;;;;;;;18.63;12.18;;;;;;;0.63;91.50;100066.09;5000628;28;20037;-71
2022/04/01 04:12:58;;;;;;;21.17;11.57;;;;;;;0.48;91.69;100053.47;4991494;28;20026;-71
2022/04/01 04:15:28;;;;;;;19.00;12.60;;;;;;;0.49;91.48;100060.22;4989305;28;20064;-72
2022/04/01 04:17:59;;;;;;;22.30;13.60;;;;;;;0.56;91.51;100063.94;4987810;28;20368;-72
2022/04/01 04:20:40;;;;;;;18.90;12.27;;;;;;;0.53;90.83;100073.59;4988460;28;20048;-71
2022/04/01 04:23:24;;;;;;;23.15;14.55;;;;;;;0.54;91.09;100063.25;5003510;28;20040;-71
2022/04/01 04:26:04;;;;;;;21.13;13.32;;;;;;;0.53;91.22;100069.28;4983507;28;20041;-71
2022/04/01 04:28:38;;;;;;;20.58;11.57;;;;;;;0.50;90.90;100072.03;5001302;28;20034;-72
2022/04/01 04:31:30;;;;;;;23.33;13.70;;;;;;;0.45;91.11;100076.66;5003136;28;20074;-71
2022/04/01 04:34:10;;;;;;;25.90;14.57;;;;;;;0.42;92.41;100082.00;4981720;28;20177;-71
2022/04/01 04:36:38;;;;;;;22.13;15.38;;;;;;;0.44;92.49;100085.25;4983781;28;20034;-72
2022/04/01 04:39:25;;;;;;;18.55;12.55;;;;;;;0.41;91.96;100092.28;4991768;28;20068;-72
2022/04/01 04:41:51;;;;;;;20.80;13.05;;;;;;;0.32;92.30;100091.19;4988568;28;20046;-72
2022/04/01 04:44:18;;;;;;;22.10;13.15;;;;;;;0.31;91.56;100092.13;4972982;28;20037;-72
2022/04/01 04:46:46;;;;;;;22.75;14.85;;;;;;;0.31;92.30;100097.22;4986042;28;20069;-72
2022/04/01 04:49:13;;;;;;;24.77;15.55;;;;;;;0.32;92.89;100107.34;4988116;28;20047;-72
2022/04/01 04:51:39;;;;;;;29.17;17.23;;;;;;;0.31;93.32;100107.44;4985174;28;20057;-71
2022/04/01 04:54:19;;;;;;;30.25;16.92;;;;;;;0.36;93.34;100110.47;4989851;28;20412;-72
2022/04/01 04:57:00;;;;;;;24.55;15.43;;;;;;;0.35;93.14;100112.19;4987793;28;20032;-72
2022/04/01 04:59:27;;;;;;;26.38;15.93;;;;;;;0.35;92.72;100108.84;4990442;28;20036;-72
2022/04/01 05:02:06;;;;;;;24.58;15.52;;;;;;;0.38;92.34;100112.00;4970600;28;20061;-72
2022/04/01 05:04:50;;;;;;;22.20;14.10;;;;;;;0.31;92.32;100112.53;4989263;28;20061;-71
2022/04/01 05:07:29;;;;;;;19.83;14.05;;;;;;;0.34;92.75;100118.25;4999148;28;20230;-71
2022/04/01 05:10:16;;;;;;;23.45;14.07;;;;;;;0.31;93.06;100128.63;5002861;28;20049;-72
2022/04/01 05:12:57;;;;;;;24.48;15.55;;;;;;;0.39;93.41;100126.38;4972617;28;20105;-72
2022/04/01 05:15:30;;;;;;;27.85;17.83;;;;;;;0.44;91.98;100131.16;5003497;28;20456;-72
2022/04/01 05:18:16;;;;;;;26.38;17.30;;;;;;;0.38;91.31;100134.97;4987958;28;20025;-72
2022/04/01 05:20:55;;;;;;;27.73;17.35;;;;;;;0.41;91.76;100145.88;5001448;28;20050;-72
2022/04/01 05:23:31;;;;;;;26.70;16.63;;;;;;;0.38;91.18;100147.72;4973958;28;20064;-72
2022/04/01 05:26:09;;;;;;;25.75;17.08;;;;;;;0.30;90.57;100152.53;4998147;28;20500;-72
2022/04/01 05:29:00;;;;;;;26.15;17.38;;;;;;;0.30;91.02;100159.34;4983304;28;20048;-72
2022/04/01 05:31:25;;;;;;;23.23;16.35;;;;;;;0.41;90.65;100156.88;4989152;28;20034;-72
2022/04/01 05:34:02;;;;;;;25.65;15.55;;;;;;;0.38;89.97;100157.91;5002235;28;20676;-72
2022/04/01 05:36:28;;;;;;;23.00;14.93;;;;;;;0.41;89.82;100167.06;5001617;28;20038;-72
2022/04/01 05:38:56;;;;;;;20.05;14.90;;;;;;;0.37;90.35;100165.66;4988772;28;20112;-72
2022/04/01 05:41:23;;;;;;;25.73;15.27;;;;;;;0.39;90.92;100179.94;4972629;28;20569;-72
2022/04/01 05:43:50;;;;;;;22.38;14.65;;;;;;;0.46;89.59;100179.53;4986859;28;20036;-72
2022/04/01 05:46:25;;;;;;;21.80;14.52;;;;;;;0.38;89.31;100180.88;4978543;28;20530;-72
2022/04/01 05:48:54;;;;;;;23.75;15.70;;;;;;;0.34;89.08;100189.66;4974031;28;20087;-72
2022/04/01 05:51:20;;;;;;;22.60;15.48;;;;;;;0.34;89.23;100189.66;4986660;28;20034;-72
2022/04/01 05:53:51;;;;;;;20.10;13.52;;;;;;;0.44;89.46;100194.13;4988473;28;20022;-72
2022/04/01 05:56:17;;;;;;;18.35;13.00;;;;;;;0.37;90.03;100198.81;4982972;28;20030;-73
2022/04/01 05:58:45;;;;;;;20.10;13.57;;;;;;;0.42;89.39;100203.63;4973227;28;20030;-72
2022/04/01 06:01:55;;;;;;;22.38;13.75;;;;;;;0.45;89.54;100209.31;5001305;28;20491;-71
2022/04/01 06:04:51;;;;;;;18.88;13.52;;;;;;;0.43;90.08;100216.25;4964118;28;20058;-72
2022/04/01 06:07:38;;;;;;;22.67;13.65;;;;;;;0.41;89.60;100210.44;4986936;28;20518;-72
2022/04/01 06:10:09;;;;;;;18.00;12.02;;;;;;;0.41;89.04;100217.28;4999595;28;20688;-72
2022/04/01 06:13:30;;;;;;;19.20;12.93;;;;;;;0.37;90.07;100226.88;4986022;28;20053;-72
2022/04/01 06:16:43;;;;;;;19.95;12.55;;;;;;;0.40;88.92;100236.91;4966685;28;20034;-71
2022/04/01 06:19:34;;;;;;;18.52;13.25;;;;;;;0.40;88.65;100231.78;4986134;28;20183;-72
2022/04/01 06:22:06;;;;;;;19.80;12.73;;;;;;;0.42;88.63;100239.34;5002371;28;20403;-72
2022/04/01 06:25:16;;;;;;;20.27;12.25;;;;;;;0.46;88.66;100246.66;4971426;28;20379;-72
2022/04/01 06:27:47;;;;;;;18.02;11.90;;;;;;;0.45;89.24;100249.31;4984840;28;20438;-72
2022/04/01 06:30:17;;;;;;;19.48;12.02;;;;;;;0.50;89.27;100250.63;4985696;28;20315;-72
2022/04/01 06:33:02;;;;;;;20.20;13.10;;;;;;;0.54;88.31;100264.81;4998809;28;20120;-72
2022/04/01 06:35:55;;;;;;;18.23;12.07;;;;;;;0.47;87.50;100257.69;4988964;28;20040;-72
2022/04/01 06:38:32;;;;;;;21.30;12.23;;;;;;;0.45;87.96;100264.63;4973412;28;20041;-72
2022/04/01 06:41:04;;;;;;;18.08;11.93;;;;;;;0.44;88.19;100261.28;5002178;28;20488;-72
2022/04/01 06:43:38;;;;;;;18.48;12.18;;;;;;;0.53;87.53;100273.41;4991420;28;20436;-72
2022/04/01 06:46:22;;;;;;;21.92;14.73;;;;;;;0.44;87.24;100270.66;4992449;28;20056;-72
2022/04/01 06:48:52;;;;;;;55.92;25.17;;;;;;;0.42;86.58;100275.88;4970610;28;20129;-73
2022/04/01 06:51:38;;;;;;;21.65;14.27;;;;;;;0.56;87.13;100280.03;5005902;28;20179;-71
2022/04/01 06:54:22;;;;;;;23.77;12.75;;;;;;;0.47;87.61;100278.94;4989351;28;20098;-73
2022/04/01 06:57:16;;;;;;;20.58;13.88;;;;;;;0.62;86.44;100291.56;5008147;28;20050;-72
2022/04/01 06:59:57;;;;;;;27.30;14.80;;;;;;;0.66;86.88;100291.25;4990737;28;20067;-72
2022/04/01 07:02:23;;;;;;;18.77;12.82;;;;;;;0.53;86.30;100290.47;4993623;28;20038;-72
2022/04/01 07:04:48;;;;;;;21.67;12.80;;;;;;;0.46;86.31;100292.59;4989569;28;20014;-71
2022/04/01 07:07:14;;;;;;;21.58;12.52;;;;;;;0.57;85.83;100304.63;5008296;28;20037;-72
2022/04/01 07:09:39;;;;;;;22.58;13.65;;;;;;;0.51;85.83;100310.97;4972497;28;20435;-72
2022/04/01 07:12:05;;;;;;;22.60;14.00;;;;;;;0.51;85.73;100295.66;5008620;28;20029;-72
2022/04/01 07:14:31;;;;;;;23.15;13.70;;;;;;;0.55;86.28;100316.69;5009659;28;20468;-71
2022/04/01 07:17:01;;;;;;;22.58;13.88;;;;;;;0.57;85.47;100312.28;4989059;28;20497;-72
2022/04/01 07:19:27;;;;;;;23.27;14.93;;;;;;;0.53;85.96;100311.69;5003094;28;20036;-72
2022/04/01 07:21:52;;;;;;;26.85;16.92;;;;;;;0.57;86.34;100320.75;4991404;28;20038;-72
2022/04/01 07:24:18;;;;;;;24.52;16.23;;;;;;;0.60;86.78;100316.38;4986741;28;20076;-72
2022/04/01 07:26:44;;;;;;;25.38;16.52;;;;;;;0.58;85.57;100327.50;5004300;28;20038;-72
2022/04/01 07:29:13;;;;;;;23.23;14.63;;;;;;;0.58;85.73;100321.56;5003425;28;20121;-72
2022/04/01 07:34:32;;;;;;;18.90;12.90;;;;;;;0.55;86.01;100332.81;5004053;28;20038;-72
2022/04/01 07:36:58;;;;;;;21.55;13.00;;;;;;;0.62;86.34;100333.19;4985943;28;20040;-72
2022/04/01 07:39:23;;;;;;;22.30;13.82;;;;;;;0.58;85.82;100345.38;4987733;28;20026;-72
2022/04/01 07:41:49;;;;;;;25.92;15.40;;;;;;;0.66;85.91;100349.13;4990830;28;20520;-72
2022/04/01 07:44:14;;;;;;;23.80;15.80;;;;;;;0.53;84.90;100352.50;5005232;28;20094;-71
2022/04/01 07:46:40;;;;;;;19.80;13.27;;;;;;;0.54;84.95;100354.13;4989352;28;20045;-72
2022/04/01 07:49:05;;;;;;;18.73;11.95;;;;;;;0.56;84.55;100354.03;5004709;28;20034;-72
2022/04/01 07:51:31;;;;;;;19.98;12.68;;;;;;;0.57;85.50;100356.47;5005202;28;20022;-71
2022/04/01 07:53:57;;;;;;;20.85;12.98;;;;;;;0.53;85.13;100367.81;5002412;28;20034;-72
2022/04/01 07:56:30;;;;;;;19.63;13.73;;;;;;;0.53;86.43;100362.72;5002366;28;20366;-72
2022/04/01 07:58:58;;;;;;;18.17;12.45;;;;;;;0.49;84.95;100357.91;4982454;28;20073;-72
2022/04/01 08:01:24;;;;;;;19.75;12.18;;;;;;;0.42;84.74;100372.00;4986087;28;20025;-72
2022/04/01 08:03:49;;;;;;;19.65;12.27;;;;;;;0.44;85.10;100365.88;5000527;28;20053;-72
2022/04/01 08:06:15;;;;;;;18.73;13.38;;;;;;;0.54;85.34;100377.09;5005989;28;20041;-72
2022/04/01 08:08:41;;;;;;;29.10;17.23;;;;;;;0.49;84.55;100365.56;5000629;28;20182;-72
2022/04/01 08:11:06;;;;;;;29.73;17.38;;;;;;;0.43;86.17;100376.97;5005837;28;20149;-72
2022/04/01 08:13:33;;;;;;;23.15;14.45;;;;;;;0.44;86.19;100386.28;4985944;28;20026;-72
2022/04/01 08:15:59;;;;;;;16.48;11.40;;;;;;;0.57;85.86;100382.00;5004176;28;20044;-72
2022/04/01 08:18:25;;;;;;;15.23;10.48;;;;;;;0.48;85.78;100389.44;4989593;28;20041;-71
2022/04/01 08:20:51;;;;;;;18.88;11.82;;;;;;;0.59;85.40;100389.56;5001878;28;20037;-71
2022/04/01 08:23:16;;;;;;;19.25;11.30;;;;;;;0.55;85.43;100404.25;4989429;28;20121;-72
2022/04/01 08:25:42;;;;;;;18.67;11.23;;;;;;;0.55;84.74;100396.59;5007076;28;20033;-72
2022/04/01 08:28:08;;;;;;;24.70;12.85;;;;;;;0.57;83.72;100401.59;4988959;28;20572;-72
2022/04/01 08:30:34;;;;;;;15.68;10.32;;;;;;;0.48;83.77;100397.91;4989185;28;20144;-72
2022/04/01 08:33:00;;;;;;;20.27;12.00;;;;;;;0.55;84.96;100417.00;5005390;28;20030;-71
2022/04/01 08:35:25;;;;;;;17.98;10.38;;;;;;;0.51;84.63;100417.28;4987495;28;20128;-72
2022/04/01 08:37:54;;;;;;;15.35;9.77;;;;;;;0.49;85.41;100424.22;4991154;28;20100;-72
2022/04/01 08:40:19;;;;;;;14.57;9.40;;;;;;;0.57;85.59;100417.72;5007179;28;20029;-72
2022/04/01 08:42:46;;;;;;;13.00;8.98;;;;;;;0.62;84.43;100419.97;4992152;28;20037;-72
2022/04/01 08:45:12;;;;;;;14.45;9.32;;;;;;;0.63;84.27;100424.16;5007048;28;20049;-72
2022/04/01 08:47:39;;;;;;;19.00;11.25;;;;;;;0.61;84.19;100418.34;4970113;28;20670;-72
2022/04/01 08:50:07;;;;;;;15.73;10.07;;;;;;;0.68;83.52;100426.41;5001799;28;20054;-72
2022/04/01 08:52:32;;;;;;;19.02;10.70;;;;;;;0.56;83.23;100439.03;5006351;28;20030;-72
2022/04/01 08:55:06;;;;;;;14.93;10.50;;;;;;;0.56;83.78;100444.16;5003595;28;20061;-72
2022/04/01 08:57:39;;;;;;;16.60;10.15;;;;;;;0.65;84.17;100452.13;4972875;28;20125;-72
2022/04/01 09:00:11;;;;;;;13.60;8.93;;;;;;;0.65;83.50;100440.19;5007101;28;20072;-72
2022/04/01 09:02:36;;;;;;;12.13;8.50;;;;;;;0.62;83.98;100457.44;4989415;28;20377;-71
2022/04/01 09:05:06;;;;;;;15.50;8.88;;;;;;;0.60;83.44;100461.81;4989437;28;20041;-72
2022/04/01 09:07:32;;;;;;;15.48;8.55;;;;;;;0.65;82.62;100470.81;4989288;28;20048;-71
2022/04/01 09:10:01;;;;;;;12.75;8.32;;;;;;;0.70;82.65;100463.69;5004647;28;20022;-71
2022/04/01 09:12:28;;;;;;;13.60;8.48;;;;;;;0.68;82.98;100465.53;5005651;28;20081;-71
2022/04/01 09:14:55;;;;;;;13.13;8.52;;;;;;;0.64;82.74;100471.75;4996337;28;20030;-71
2022/04/01 09:17:21;;;;;;;16.30;8.50;;;;;;;0.68;82.99;100468.06;4989841;28;20046;-72
2022/04/01 09:19:46;;;;;;;11.95;8.30;;;;;;;0.55;82.50;100462.94;4968821;28;20036;-71
2022/04/01 09:22:23;;;;;;;16.02;10.23;;;;;;;0.63;83.07;100467.53;5004145;28;20021;-71
2022/04/01 09:24:58;;;;;;;14.02;9.13;;;;;;;0.70;82.47;100479.00;4970605;28;20653;-71
2022/04/01 09:27:53;;;;;;;15.45;10.50;;;;;;;0.58;81.33;100475.50;4996871;28;20035;-73
2022/04/01 09:30:23;;;;;;;12.43;9.45;;;;;;;0.61;81.61;100482.16;4984693;28;20125;-71
2022/04/01 09:32:51;;;;;;;17.75;11.00;;;;;;;0.59;82.72;100486.53;4986720;28;20036;-71
2022/04/01 09:35:22;;;;;;;15.95;11.13;;;;;;;0.67;83.32;100497.03;4986460;28;20033;-72
2022/04/01 09:37:59;;;;;;;13.13;7.55;;;;;;;0.67;80.29;100480.94;5002890;28;20536;-71
2022/04/01 09:40:25;;;;;;;14.13;8.52;;;;;;;0.69;81.91;100492.66;5000104;28;20033;-72
2022/04/01 09:42:54;;;;;;;12.95;8.45;;;;;;;0.75;81.99;100497.38;4979563;28;20037;-71
2022/04/01 09:45:23;;;;;;;11.13;7.47;;;;;;;0.71;80.33;100495.13;4971052;28;20062;-71
2022/04/01 09:48:06;;;;;;;14.65;7.35;;;;;;;0.69;80.91;100499.50;5000020;28;20413;-72
2022/04/01 09:50:32;;;;;;;16.80;6.68;;;;;;;0.66;82.18;100502.25;4981832;28;20392;-71
2022/04/01 09:53:08;;;;;;;12.48;6.00;;;;;;;0.65;81.32;100503.19;4986302;28;20105;-72
2022/04/01 09:55:36;;;;;;;9.50;6.50;;;;;;;0.69;81.09;100502.88;4981437;28;20056;-71
2022/04/01 09:58:03;;;;;;;13.90;7.10;;;;;;;0.75;80.65;100501.66;4985028;28;20073;-72
2022/04/01 10:00:28;;;;;;;10.43;6.72;;;;;;;0.80;80.35;100507.28;4988177;28;20116;-71
2022/04/01 10:02:54;;;;;;;10.15;6.95;;;;;;;0.76;81.72;100508.41;4986631;28;20037;-72
2022/04/01 10:05:20;;;;;;;12.30;6.68;;;;;;;0.81;80.82;100513.19;4998385;28;20121;-73
2022/04/01 10:07:46;;;;;;;11.85;7.05;;;;;;;0.71;79.99;100515.53;4984519;28;20547;-72
2022/04/01 10:10:11;;;;;;;10.13;6.43;;;;;;;0.61;79.82;100509.41;4982651;28;20037;-72
2022/04/01 10:12:41;;;;;;;14.63;7.18;;;;;;;0.63;78.69;100517.78;4998527;28;20076;-72
2022/04/01 10:15:10;;;;;;;10.98;6.55;;;;;;;0.71;78.75;100520.66;4983703;28;20484;-72
2022/04/01 10:17:39;;;;;;;10.23;6.97;;;;;;;0.70;79.48;100516.47;4980177;28;20030;-72
2022/04/01 10:20:06;;;;;;;13.00;6.13;;;;;;;0.74;78.65;100528.91;4968390;28;20070;-72
2022/04/01 10:22:31;;;;;;;10.68;6.70;;;;;;;0.73;79.30;100529.03;4979900;28;20052;-72
2022/04/01 10:25:20;;;;;;;10.10;5.63;;;;;;;0.80;79.55;100534.56;4999486;28;20488;-72
2022/04/01 10:27:51;;;;;;;11.23;6.53;;;;;;;0.84;79.64;100530.88;4998892;28;20037;-72
2022/04/01 10:30:18;;;;;;;15.98;6.97;;;;;;;0.79;79.53;100531.16;5000560;28;20045;-72
2022/04/01 10:32:48;;;;;;;11.98;6.60;;;;;;;0.76;78.74;100534.75;4979968;28;20037;-71
2022/04/01 10:35:40;;;;;;;11.40;6.65;;;;;;;0.72;77.85;100530.75;4972669;28;20396;-71
2022/04/01 10:38:05;;;;;;;9.43;5.95;;;;;;;0.83;77.69;100532.63;4976209;28;20057;-72
2022/04/01 10:40:33;;;;;;;12.00;6.63;;;;;;;0.76;78.12;100539.03;4967041;28;20080;-72
2022/04/01 10:43:10;;;;;;;9.52;6.15;;;;;;;0.69;78.16;100541.16;4984413;28;20030;-72
2022/04/01 10:45:38;;;;;;;10.75;7.45;;;;;;;0.73;79.32;100540.03;4997392;28;20373;-72
2022/04/01 10:51:37;;;;;;;17.60;7.40;;;;;;;0.85;78.24;100530.78;5000544;28;20042;-72
2022/04/01 10:54:10;;;;;;;9.50;6.68;;;;;;;0.83;77.29;100542.84;4997606;28;20033;-71
2022/04/01 10:56:36;;;;;;;9.38;5.25;;;;;;;0.69;78.61;100548.00;4983242;28;20038;-72
2022/04/01 10:59:17;;;;;;;10.65;5.70;;;;;;;0.69;77.66;100550.56;4984711;28;20029;-72
2022/04/01 11:01:52;;;;;;;9.02;5.78;;;;;;;0.80;78.28;100548.13;5003045;28;20038;-72
2022/04/01 11:04:18;;;;;;;11.38;5.85;;;;;;;0.77;78.05;100549.16;5000263;28;20034;-72
2022/04/01 11:06:56;;;;;;;11.30;5.57;;;;;;;0.78;77.13;100550.78;4981592;28;20045;-71
2022/04/01 11:09:56;;;;;;;10.57;5.93;;;;;;;0.94;77.59;100555.72;4999438;28;20453;-71
2022/04/01 11:12:25;;;;;;;13.77;6.35;;;;;;;0.88;76.27;100545.88;4996564;28;20508;-71
2022/04/01 11:14:56;;;;;;;7.70;5.53;;;;;;;0.80;77.16;100550.69;4982798;28;20041;-71
2022/04/01 11:17:27;;;;;;;11.45;6.32;;;;;;;0.81;77.05;100546.38;5001082;28;20037;-72
2022/04/01 11:19:58;;;;;;;9.52;5.80;;;;;;;0.82;78.14;100548.84;4983380;28;20045;-72
2022/04/01 11:22:34;;;;;;;8.27;5.88;;;;;;;0.97;78.41;100555.50;4973121;28;20038;-72
2022/04/01 11:24:59;;;;;;;9.32;5.50;;;;;;;0.96;77.13;100555.59;5002980;28;20512;-71
2022/04/01 11:27:25;;;;;;;10.05;5.53;;;;;;;1.05;77.65;100555.00;4982680;28;20061;-73
2022/04/01 11:30:13;;;;;;;10.35;5.90;;;;;;;1.04;76.96;100557.69;4986149;28;20025;-71
2022/04/01 11:32:44;;;;;;;9.25;5.50;;;;;;;1.11;77.94;100564.84;5003907;28;20049;-71
2022/04/01 11:35:13;;;;;;;9.85;5.47;;;;;;;1.03;76.33;100563.69;4971790;28;20033;-72
2022/04/01 11:37:42;;;;;;;9.20;5.45;;;;;;;0.97;77.26;100560.63;5002563;28;20033;-71
2022/04/01 11:40:19;;;;;;;11.35;5.60;;;;;;;1.02;77.63;100570.53;4997979;28;20622;-72
2022/04/01 11:43:02;;;;;;;26.63;14.38;;;;;;;1.05;77.86;100565.22;4971375;28;21136;-72
2022/04/01 11:45:33;;;;;;;13.00;7.43;;;;;;;1.04;77.89;100568.72;4988922;28;20400;-72
2022/04/01 11:48:01;;;;;;;14.00;6.45;;;;;;;1.00;77.10;100563.88;5000385;28;20108;-71
2022/04/01 11:50:27;;;;;;;12.32;5.55;;;;;;;1.02;76.33;100575.66;4998635;28;20514;-73
2022/04/01 11:52:56;;;;;;;11.35;5.53;;;;;;;0.99;76.47;100572.47;4989509;28;20311;-72